createdAt,value
2022-11-24T00:01:06.551Z,12.18
2022-11-24T00:03:33.499Z,16.80
2022-11-24T00:06:12.235Z,12.63
2022-11-24T00:08:40.669Z,15.65
2022-11-24T00:11:10.119Z,8.85
2022-11-24T00:13:39.159Z,10.27
2022-11-24T00:16:19.639Z,9.02
2022-11-24T00:18:48.312Z,10.40
2022-11-24T00:21:18.713Z,10.13
2022-11-24T00:23:46.471Z,12.23
2022-11-24T00:26:20.769Z,12.00
2022-11-24T00:28:49.392Z,12.40
2022-11-24T00:31:32.236Z,14.40
2022-11-24T00:34:01.417Z,12.63
2022-11-24T00:36:30.885Z,17.13
2022-11-24T00:39:03.845Z,11.63
2022-11-24T00:41:30.936Z,11.80
2022-11-24T00:43:58.758Z,6.03
2022-11-24T00:46:26.345Z,12.07
2022-11-24T00:48:53.958Z,9.88
2022-11-24T00:51:24.030Z,10.15
2022-11-24T00:53:50.911Z,12.18
2022-11-24T00:56:17.753Z,10.75
2022-11-24T00:58:44.529Z,9.13
2022-11-24T01:01:15.682Z,11.02
2022-11-24T01:03:42.737Z,13.27
2022-11-24T01:06:12.543Z,10.60
2022-11-24T01:08:41.559Z,10.40
2022-11-24T01:11:10.287Z,8.85
2022-11-24T01:13:37.717Z,9.57
2022-11-24T01:16:04.929Z,6.18
2022-11-24T01:18:31.770Z,11.60
2022-11-24T01:20:58.582Z,11.02
2022-11-24T01:23:25.306Z,9.32
2022-11-24T01:25:52.030Z,7.60
2022-11-24T01:28:18.815Z,6.07
2022-11-24T01:30:47.189Z,13.18
2022-11-24T01:33:13.976Z,7.38
2022-11-24T01:35:40.763Z,6.57
2022-11-24T01:38:07.523Z,9.52
2022-11-24T01:40:34.266Z,7.53
2022-11-24T01:43:01.023Z,9.77
2022-11-24T01:45:40.565Z,6.47
2022-11-24T01:48:27.364Z,8.48
2022-11-24T01:51:11.542Z,11.40
2022-11-24T01:56:06.519Z,6.75
2022-11-24T01:58:35.959Z,7.47
2022-11-24T02:01:02.810Z,6.90
2022-11-24T02:03:35.339Z,11.65
2022-11-24T02:06:07.719Z,12.48
2022-11-24T02:08:51.826Z,7.43
2022-11-24T02:11:21.006Z,8.23
2022-11-24T02:13:48.575Z,11.13
2022-11-24T02:16:15.524Z,8.35
2022-11-24T02:18:42.474Z,7.00
2022-11-24T02:21:11.975Z,8.00
2022-11-24T02:23:51.042Z,8.07
2022-11-24T02:26:36.218Z,7.00
2022-11-24T02:29:03.116Z,7.97
2022-11-24T02:31:30.035Z,5.47
2022-11-24T02:33:57.081Z,10.18
2022-11-24T02:36:24.360Z,5.85
2022-11-24T02:38:51.104Z,7.63
2022-11-24T02:41:25.147Z,8.45
2022-11-24T02:43:59.838Z,6.93
2022-11-24T02:46:26.638Z,8.68
2022-11-24T02:48:53.446Z,6.25
2022-11-24T02:51:20.247Z,8.55
2022-11-24T02:53:47.011Z,4.47
2022-11-24T02:56:13.746Z,6.13
2022-11-24T02:58:40.518Z,7.50
2022-11-24T03:01:07.524Z,3.30
2022-11-24T03:03:34.576Z,6.82
2022-11-24T03:06:01.373Z,7.22
2022-11-24T03:08:28.103Z,9.48
2022-11-24T03:10:54.932Z,7.75
2022-11-24T03:13:21.678Z,3.92
2022-11-24T03:15:48.691Z,4.28
2022-11-24T03:18:15.472Z,7.93
2022-11-24T03:20:42.168Z,7.97
2022-11-24T03:23:08.913Z,5.70
2022-11-24T03:25:35.668Z,7.50
2022-11-24T03:28:02.975Z,7.25
2022-11-24T03:30:30.393Z,6.18
2022-11-24T03:32:57.190Z,8.10
2022-11-24T03:35:25.932Z,9.35
2022-11-24T03:37:52.790Z,9.73
2022-11-24T03:40:19.573Z,8.25
2022-11-24T03:42:46.446Z,8.45
2022-11-24T03:47:59.939Z,5.13
2022-11-24T03:50:26.647Z,6.25
2022-11-24T03:52:53.462Z,6.50
2022-11-24T03:55:20.159Z,11.18
2022-11-24T03:57:46.879Z,10.23
2022-11-24T04:00:14.022Z,10.88
2022-11-24T04:02:40.783Z,5.85
2022-11-24T04:05:07.903Z,9.82
2022-11-24T04:07:34.703Z,12.57
2022-11-24T04:10:01.595Z,13.32
2022-11-24T04:12:46.630Z,9.02
2022-11-24T04:15:18.753Z,11.45
2022-11-24T04:17:46.879Z,14.43
2022-11-24T04:20:14.243Z,11.55
2022-11-24T04:22:41.531Z,12.65
2022-11-24T04:25:09.317Z,14.40
2022-11-24T04:27:37.225Z,6.63
2022-11-24T04:30:06.146Z,9.98
2022-11-24T04:32:32.868Z,11.05
2022-11-24T04:34:59.618Z,6.30
2022-11-24T04:37:26.500Z,7.90
2022-11-24T04:39:55.094Z,8.52
2022-11-24T04:42:21.932Z,12.02
2022-11-24T04:44:48.645Z,9.00
2022-11-24T04:47:22.245Z,12.23
2022-11-24T04:49:49.240Z,13.45
2022-11-24T04:52:17.554Z,8.48
2022-11-24T04:54:44.341Z,12.45
2022-11-24T04:57:22.706Z,8.85
2022-11-24T04:59:50.546Z,9.82
2022-11-24T05:02:17.728Z,8.32
2022-11-24T05:04:44.898Z,12.15
2022-11-24T05:07:18.066Z,12.65
2022-11-24T05:10:04.485Z,11.32
2022-11-24T05:12:31.476Z,10.85
2022-11-24T05:14:59.412Z,10.13
2022-11-24T05:17:31.411Z,10.23
2022-11-24T05:19:58.404Z,10.20
2022-11-24T05:22:26.035Z,17.17
2022-11-24T05:24:52.830Z,13.13
2022-11-24T05:27:19.565Z,11.52
2022-11-24T05:29:46.331Z,13.20
2022-11-24T05:32:13.049Z,9.13
2022-11-24T05:34:39.756Z,10.35
2022-11-24T05:37:06.835Z,12.55
2022-11-24T05:39:35.450Z,7.38
2022-11-24T05:42:22.579Z,12.73
2022-11-24T05:44:49.460Z,12.00
2022-11-24T05:47:16.375Z,14.95
2022-11-24T05:49:43.385Z,16.33
2022-11-24T05:52:10.848Z,8.55
2022-11-24T05:54:37.638Z,11.95
2022-11-24T05:57:05.003Z,13.43
2022-11-24T05:59:31.794Z,8.27
2022-11-24T06:01:58.748Z,10.73
2022-11-24T06:04:25.636Z,13.20
2022-11-24T06:06:52.434Z,10.10
2022-11-24T06:09:19.309Z,17.13
2022-11-24T06:11:48.249Z,14.15
2022-11-24T06:14:15.053Z,11.45
2022-11-24T06:16:41.877Z,13.88
2022-11-24T06:19:10.883Z,11.20
2022-11-24T06:21:37.929Z,12.38
2022-11-24T06:24:05.434Z,9.23
2022-11-24T06:26:32.476Z,11.45
2022-11-24T06:28:59.350Z,12.35
2022-11-24T06:31:32.504Z,10.10
2022-11-24T06:33:59.981Z,15.82
2022-11-24T06:36:32.945Z,12.82
2022-11-24T06:39:05.060Z,13.40
2022-11-24T06:41:39.264Z,12.02
2022-11-24T06:44:16.361Z,11.43
2022-11-24T06:46:43.150Z,13.50
2022-11-24T06:49:18.479Z,14.55
2022-11-24T06:51:45.536Z,9.95
2022-11-24T06:54:21.460Z,18.63
2022-11-24T06:56:48.353Z,12.10
2022-11-24T06:59:43.541Z,11.90
2022-11-24T07:02:10.894Z,17.40
2022-11-24T07:05:02.989Z,14.63
2022-11-24T07:07:29.783Z,14.43
2022-11-24T07:10:05.852Z,10.05
2022-11-24T07:12:35.873Z,9.75
2022-11-24T07:15:28.597Z,10.55
2022-11-24T07:17:55.532Z,10.10
2022-11-24T07:20:33.334Z,11.73
2022-11-24T07:23:00.626Z,15.23
2022-11-24T07:25:36.500Z,13.40
2022-11-24T07:28:17.215Z,11.60
2022-11-24T07:30:54.622Z,14.88
2022-11-24T07:33:25.082Z,13.85
2022-11-24T07:36:01.476Z,18.63
2022-11-24T07:38:37.188Z,13.95
2022-11-24T07:41:19.400Z,18.02
2022-11-24T07:43:47.433Z,11.38
2022-11-24T07:46:23.480Z,13.23
2022-11-24T07:48:50.448Z,10.10
2022-11-24T07:51:44.948Z,12.98
2022-11-24T07:54:11.987Z,9.65
2022-11-24T07:57:04.458Z,9.30
2022-11-24T07:59:31.281Z,14.05
2022-11-24T08:02:09.213Z,10.38
2022-11-24T08:04:37.143Z,15.07
2022-11-24T08:07:09.949Z,15.20
2022-11-24T08:09:36.827Z,7.57
2022-11-24T08:12:12.807Z,10.05
2022-11-24T08:14:40.548Z,6.47
2022-11-24T08:17:33.688Z,11.38
2022-11-24T08:20:00.790Z,8.38
2022-11-24T08:22:36.789Z,4.35
2022-11-24T08:25:03.886Z,12.55
2022-11-24T08:27:40.069Z,9.55
2022-11-24T08:30:15.805Z,8.20
2022-11-24T08:32:42.764Z,7.18
2022-11-24T08:35:22.375Z,6.05
2022-11-24T08:37:49.257Z,3.75
2022-11-24T08:40:25.381Z,5.22
2022-11-24T08:42:52.968Z,3.53
2022-11-24T08:45:30.431Z,2.72
2022-11-24T08:48:08.908Z,3.85
2022-11-24T08:50:45.113Z,3.72
2022-11-24T08:53:11.944Z,1.15
2022-11-24T08:55:40.861Z,2.13
2022-11-24T08:58:10.651Z,5.90
2022-11-24T09:00:37.452Z,3.58
2022-11-24T09:03:12.002Z,1.80
2022-11-24T09:05:54.472Z,2.92
2022-11-24T09:08:21.284Z,1.77
2022-11-24T09:11:17.180Z,2.45
2022-11-24T09:13:44.768Z,2.35
2022-11-24T09:16:20.412Z,4.13
2022-11-24T09:18:57.107Z,2.08
2022-11-24T09:21:24.130Z,1.30
2022-11-24T09:24:01.812Z,3.70
2022-11-24T09:26:31.093Z,1.52
2022-11-24T09:29:08.032Z,0.70
2022-11-24T09:31:45.312Z,0.75
2022-11-24T09:34:15.024Z,1.67
2022-11-24T09:36:51.582Z,1.58
2022-11-24T09:39:25.882Z,1.70
2022-11-24T09:42:52.074Z,1.60
2022-11-24T09:46:09.818Z,0.63
2022-11-24T09:48:51.855Z,1.05
2022-11-24T09:51:31.790Z,1.13
2022-11-24T09:54:16.687Z,2.95
2022-11-24T09:56:55.620Z,1.50
2022-11-24T09:59:33.948Z,0.43
2022-11-24T10:02:01.208Z,0.75
2022-11-24T10:04:39.443Z,0.95
2022-11-24T10:08:17.357Z,1.45
2022-11-24T10:11:01.395Z,2.53
2022-11-24T10:13:40.294Z,0.88
2022-11-24T10:16:43.465Z,1.48
2022-11-24T10:19:47.730Z,1.25
2022-11-24T10:22:30.230Z,0.28
2022-11-24T10:25:15.439Z,1.17
2022-11-24T10:28:15.165Z,0.50
2022-11-24T10:31:16.728Z,1.85
2022-11-24T10:33:52.671Z,2.83
2022-11-24T10:36:56.145Z,0.70
2022-11-24T10:40:55.931Z,1.40
2022-11-24T10:43:20.780Z,2.38
2022-11-24T10:45:55.170Z,1.15
2022-11-24T10:48:27.218Z,3.28
2022-11-24T10:51:15.336Z,1.80
2022-11-24T10:53:43.312Z,1.10
2022-11-24T10:56:17.908Z,3.97
2022-11-24T10:58:44.814Z,1.92
2022-11-24T11:01:59.707Z,2.25
2022-11-24T11:04:40.143Z,3.40
2022-11-24T11:07:25.067Z,1.65
2022-11-24T11:10:25.154Z,1.10
2022-11-24T11:12:51.972Z,1.63
2022-11-24T11:15:29.808Z,2.53
2022-11-24T11:18:06.719Z,2.40
2022-11-24T11:23:31.094Z,4.22
2022-11-24T11:26:19.016Z,3.70
2022-11-24T11:34:57.602Z,3.63
2022-11-24T11:37:35.988Z,1.75
2022-11-24T11:40:03.533Z,2.10
2022-11-24T11:45:45.538Z,3.35
2022-11-24T11:48:44.040Z,5.57
2022-11-24T11:51:30.022Z,4.72
2022-11-24T11:54:30.446Z,8.02
2022-11-24T11:57:42.826Z,2.75
2022-11-24T12:00:24.476Z,4.75
2022-11-24T12:03:33.095Z,7.65
2022-11-24T12:06:31.189Z,5.70
2022-11-24T12:09:29.325Z,4.97
2022-11-24T12:12:50.457Z,7.93
2022-11-24T12:15:53.514Z,5.03
2022-11-24T12:18:57.534Z,5.80
2022-11-24T12:21:43.096Z,8.13
2022-11-24T12:25:00.550Z,4.50
2022-11-24T12:28:16.973Z,7.88
2022-11-24T12:31:36.934Z,5.95
2022-11-24T12:34:56.578Z,8.40
2022-11-24T12:37:46.709Z,5.30
2022-11-24T12:40:48.303Z,4.75
2022-11-24T12:43:40.035Z,9.40
2022-11-24T12:46:08.879Z,4.85
2022-11-24T12:48:48.203Z,6.07
2022-11-24T12:51:29.764Z,5.05
2022-11-24T12:54:17.382Z,11.70
2022-11-24T12:59:39.204Z,7.50
2022-11-24T13:07:51.827Z,4.72
2022-11-24T13:13:32.349Z,6.15
2022-11-24T13:16:38.511Z,5.47
2022-11-24T13:20:04.095Z,11.32
2022-11-24T13:22:46.392Z,7.38
2022-11-24T13:25:39.822Z,7.13
2022-11-24T13:28:06.928Z,7.70
2022-11-24T13:38:46.120Z,9.90
2022-11-24T13:41:31.379Z,5.53
2022-11-24T13:44:05.814Z,4.18
2022-11-24T13:44:16.004Z,8.13
2022-11-24T13:47:07.276Z,4.80
2022-11-24T13:53:13.776Z,9.02
2022-11-24T14:07:36.415Z,9.35
2022-11-24T14:10:03.563Z,6.05
2022-11-24T14:13:24.838Z,8.15
2022-11-24T14:16:20.132Z,7.10
2022-11-24T14:19:08.272Z,8.85
2022-11-24T14:25:49.448Z,7.82
2022-11-24T14:28:45.752Z,5.97
2022-11-24T14:31:51.839Z,8.35
2022-11-24T14:34:50.156Z,11.82
2022-11-24T14:37:27.619Z,9.85
2022-11-24T14:44:58.558Z,5.20
2022-11-24T14:47:37.840Z,8.00
2022-11-24T14:54:37.016Z,11.00
2022-11-24T14:57:06.027Z,11.95
2022-11-24T15:00:06.267Z,7.70
2022-11-24T15:05:23.700Z,9.40
2022-11-24T15:07:39.652Z,9.57
2022-11-24T15:10:43.771Z,9.75
2022-11-24T15:14:01.380Z,9.55
2022-11-24T15:16:30.193Z,14.27
2022-11-24T15:19:15.302Z,11.93
2022-11-24T15:21:51.392Z,7.45
2022-11-24T15:24:53.402Z,8.57
2022-11-24T15:27:29.696Z,8.88
2022-11-24T15:31:10.220Z,7.78
2022-11-24T15:33:50.248Z,9.48
2022-11-24T15:36:32.474Z,8.50
2022-11-24T15:39:14.715Z,6.82
2022-11-24T15:41:42.138Z,6.63
2022-11-24T15:44:37.498Z,9.93
2022-11-24T15:47:04.640Z,8.00
2022-11-24T15:49:59.368Z,8.95
2022-11-24T15:52:26.189Z,11.35
2022-11-24T15:55:21.352Z,10.45
2022-11-24T15:58:04.017Z,11.82
2022-11-24T16:00:47.111Z,13.18
2022-11-24T16:06:25.036Z,11.48
2022-11-24T16:09:28.404Z,14.55
2022-11-24T16:20:00.762Z,14.10
2022-11-24T16:22:59.313Z,10.90
2022-11-24T16:25:53.024Z,14.38
2022-11-24T16:28:20.386Z,16.58
2022-11-24T16:37:58.008Z,14.70
2022-11-24T16:40:24.834Z,20.40
2022-11-24T16:43:19.500Z,10.35
2022-11-24T16:46:18.580Z,9.60
2022-11-24T16:52:06.161Z,8.85
2022-11-24T16:54:42.351Z,8.00
2022-11-24T16:57:15.025Z,11.23
2022-11-24T16:59:46.553Z,9.40
2022-11-24T17:02:13.755Z,7.45
2022-11-24T17:05:09.684Z,9.68
2022-11-24T17:07:36.547Z,10.52
2022-11-24T17:10:30.755Z,9.82
2022-11-24T17:13:50.494Z,10.00
2022-11-24T17:20:03.297Z,8.65
2022-11-24T17:22:42.286Z,8.32
2022-11-24T17:25:22.960Z,8.05
2022-11-24T17:28:40.274Z,8.50
2022-11-24T17:31:21.114Z,5.68
2022-11-24T17:34:16.744Z,9.98
2022-11-24T17:36:45.971Z,14.82
2022-11-24T17:39:24.803Z,18.63
2022-11-24T17:41:52.062Z,13.82
2022-11-24T17:44:27.080Z,7.35
2022-11-24T17:47:10.461Z,12.70
2022-11-24T17:49:46.040Z,7.72
2022-11-24T17:52:12.862Z,9.13
2022-11-24T17:54:47.119Z,10.65
2022-11-24T17:57:19.470Z,12.18
2022-11-24T17:59:53.804Z,10.38
2022-11-24T18:02:37.330Z,12.75
2022-11-24T18:08:59.196Z,17.70
2022-11-24T18:11:55.755Z,16.90
2022-11-24T18:14:22.663Z,21.42
2022-11-24T18:17:16.938Z,18.73
2022-11-24T18:19:43.870Z,16.05
2022-11-24T18:23:04.595Z,12.13
2022-11-24T18:25:43.857Z,14.80
2022-11-24T18:31:02.949Z,15.48
2022-11-24T18:33:31.879Z,18.95
2022-11-24T18:36:29.968Z,11.70
2022-11-24T18:39:09.985Z,15.45
2022-11-24T18:41:51.279Z,18.00
2022-11-24T18:44:26.631Z,11.05
2022-11-24T18:47:09.474Z,13.85
2022-11-24T18:49:46.400Z,14.93
2022-11-24T18:52:14.057Z,12.90
2022-11-24T18:54:48.867Z,11.25
2022-11-24T19:01:19.611Z,9.27
2022-11-24T19:03:56.270Z,7.82
2022-11-24T19:06:36.128Z,8.75
2022-11-24T19:16:44.411Z,10.27
2022-11-24T19:19:21.420Z,12.32
2022-11-24T19:22:21.949Z,43.00
2022-11-24T19:25:28.827Z,63.25
2022-11-24T19:28:53.594Z,38.85
2022-11-24T19:49:56.121Z,15.80
2022-11-24T19:52:23.293Z,13.95
2022-11-24T19:54:50.182Z,12.57
2022-11-24T19:57:16.953Z,14.82
2022-11-24T19:59:45.677Z,12.90
2022-11-24T20:02:12.579Z,15.13
2022-11-24T20:04:41.291Z,10.80
2022-11-24T20:07:08.149Z,14.18
2022-11-24T20:09:35.045Z,11.70
2022-11-24T20:12:01.847Z,11.50
2022-11-24T20:14:28.612Z,10.98
2022-11-24T20:16:55.423Z,15.55
2022-11-24T20:19:22.233Z,9.25
2022-11-24T20:21:50.189Z,8.23
2022-11-24T20:24:20.068Z,11.30
2022-11-24T20:26:50.719Z,13.50
2022-11-24T20:29:18.193Z,7.40
2022-11-24T20:31:51.012Z,8.55
2022-11-24T20:34:18.538Z,12.75
2022-11-24T20:36:46.891Z,6.60
2022-11-24T20:39:16.548Z,9.23
2022-11-24T20:41:43.752Z,6.57
2022-11-24T20:44:16.182Z,8.88
2022-11-24T20:46:45.614Z,9.27
2022-11-24T20:49:14.947Z,12.82
2022-11-24T20:51:44.180Z,7.78
2022-11-24T20:54:13.125Z,11.32
2022-11-24T20:56:42.464Z,7.47
2022-11-24T20:59:13.500Z,14.23
2022-11-24T21:01:43.451Z,11.63
2022-11-24T21:04:12.758Z,6.90
2022-11-24T21:06:40.383Z,7.45
2022-11-24T21:09:08.589Z,10.52
2022-11-24T21:11:35.982Z,7.78
2022-11-24T21:14:03.015Z,10.23
2022-11-24T21:16:31.931Z,8.90
2022-11-24T21:19:04.461Z,13.40
2022-11-24T21:21:36.163Z,7.50
2022-11-24T21:24:06.007Z,9.70
2022-11-24T21:26:36.797Z,7.70
2022-11-24T21:29:04.580Z,7.47
2022-11-24T21:31:34.295Z,6.97
2022-11-24T21:34:01.043Z,13.77
2022-11-24T21:36:27.912Z,20.00
2022-11-24T21:38:56.876Z,15.25
2022-11-24T21:41:25.997Z,14.15
2022-11-24T21:43:55.827Z,11.30
2022-11-24T21:46:23.333Z,15.95
2022-11-24T21:48:50.275Z,13.15
2022-11-24T21:51:19.865Z,10.68
2022-11-24T21:53:47.584Z,9.13
2022-11-24T21:56:17.626Z,11.27
2022-11-24T21:58:45.761Z,11.07
2022-11-24T22:01:13.451Z,11.68
2022-11-24T22:03:40.519Z,23.88
2022-11-24T22:06:07.867Z,11.48
2022-11-24T22:08:35.169Z,13.13
2022-11-24T22:11:13.889Z,13.05
2022-11-24T22:13:41.778Z,11.25
2022-11-24T22:16:14.331Z,8.43
2022-11-24T22:18:42.722Z,6.47
2022-11-24T22:21:18.910Z,9.95
2022-11-24T22:23:46.288Z,8.98
2022-11-24T22:26:16.031Z,7.90
2022-11-24T22:28:43.937Z,6.38
2022-11-24T22:31:17.033Z,7.22
2022-11-24T22:33:44.418Z,7.97
2022-11-24T22:36:12.519Z,8.75
2022-11-24T22:38:39.470Z,11.32
2022-11-24T22:41:11.311Z,9.45
2022-11-24T22:43:39.811Z,6.32
2022-11-24T22:46:15.139Z,7.82
2022-11-24T22:48:43.205Z,7.97
2022-11-24T22:51:12.546Z,10.50
2022-11-24T22:53:39.960Z,7.75
2022-11-24T22:56:11.342Z,9.18
2022-11-24T22:58:39.360Z,11.95
2022-11-24T23:01:08.311Z,15.07
2022-11-24T23:03:35.981Z,11.63
2022-11-24T23:06:05.476Z,10.57
2022-11-24T23:08:34.165Z,9.82
2022-11-24T23:11:02.536Z,11.73
2022-11-24T23:13:29.782Z,11.05
2022-11-24T23:16:08.096Z,10.77
2022-11-24T23:18:34.961Z,13.55
2022-11-24T23:21:13.937Z,20.95
2022-11-24T23:23:41.132Z,18.33
2022-11-24T23:26:10.537Z,25.27
2022-11-24T23:28:37.781Z,18.90
2022-11-24T23:31:13.906Z,18.00
2022-11-24T23:33:41.237Z,15.63
2022-11-24T23:36:17.541Z,12.43
2022-11-24T23:38:45.081Z,12.48
2022-11-24T23:41:14.662Z,11.60
2022-11-24T23:43:42.234Z,12.15
2022-11-24T23:46:13.506Z,13.77
2022-11-24T23:48:40.583Z,9.18
2022-11-24T23:51:21.899Z,14.05
2022-11-24T23:53:49.285Z,10.77
2022-11-24T23:56:19.225Z,8.13
2022-11-24T23:58:46.099Z,10.27
